sensor_id;sensor_type;location;lat;lon;timestamp;temperature;humidity
35962;DHT22;22044;48.298;10.008;2022-10-31T00:01:10;10.40;99.90
35962;DHT22;22044;48.298;10.008;2022-10-31T00:03:55;10.40;99.90
35962;DHT22;22044;48.298;10.008;2022-10-31T00:06:41;10.40;99.90
35962;DHT22;22044;48.298;10.008;2022-10-31T00:09:27;10.40;99.90
35962;DHT22;22044;48.298;10.008;2022-10-31T00:12:13;10.50;99.90
35962;DHT22;22044;48.298;10.008;2022-10-31T00:14:59;10.40;99.90
35962;DHT22;22044;48.298;10.008;2022-10-31T00:17:44;10.40;99.90
35962;DHT22;22044;48.298;10.008;2022-10-31T00:20:30;10.50;99.90
35962;DHT22;22044;48.298;10.008;2022-10-31T00:23:16;10.60;99.90
35962;DHT22;22044;48.298;10.008;2022-10-31T00:26:02;10.50;99.90
35962;DHT22;22044;48.298;10.008;2022-10-31T00:28:49;10.60;99.90
35962;DHT22;22044;48.298;10.008;2022-10-31T00:31:35;10.50;99.90
35962;DHT22;22044;48.298;10.008;2022-10-31T00:34:20;10.40;99.90
35962;DHT22;22044;48.298;10.008;2022-10-31T00:37:06;10.40;99.90
35962;DHT22;22044;48.298;10.008;2022-10-31T00:39:53;10.40;99.90
35962;DHT22;22044;48.298;10.008;2022-10-31T00:42:39;10.50;99.90
35962;DHT22;22044;48.298;10.008;2022-10-31T00:45:27;10.60;99.90
35962;DHT22;22044;48.298;10.008;2022-10-31T00:48:12;10.70;99.90
35962;DHT22;22044;48.298;10.008;2022-10-31T00:50:57;10.80;99.90
35962;DHT22;22044;48.298;10.008;2022-10-31T00:53:43;10.80;99.90
35962;DHT22;22044;48.298;10.008;2022-10-31T00:56:29;10.80;99.90
35962;DHT22;22044;48.298;10.008;2022-10-31T00:59:16;10.60;99.90
35962;DHT22;22044;48.298;10.008;2022-10-31T01:02:03;10.60;99.90
35962;DHT22;22044;48.298;10.008;2022-10-31T01:04:49;10.60;99.90
35962;DHT22;22044;48.298;10.008;2022-10-31T01:07:36;10.30;99.90
35962;DHT22;22044;48.298;10.008;2022-10-31T01:10:22;10.10;99.90
35962;DHT22;22044;48.298;10.008;2022-10-31T01:13:09;10.10;99.90
35962;DHT22;22044;48.298;10.008;2022-10-31T01:15:55;10.30;99.90
35962;DHT22;22044;48.298;10.008;2022-10-31T01:18:43;10.40;99.90
35962;DHT22;22044;48.298;10.008;2022-10-31T01:21:29;10.30;99.90
35962;DHT22;22044;48.298;10.008;2022-10-31T01:24:16;10.30;99.90
35962;DHT22;22044;48.298;10.008;2022-10-31T01:27:02;10.40;99.90
35962;DHT22;22044;48.298;10.008;2022-10-31T01:29:51;10.50;99.90
35962;DHT22;22044;48.298;10.008;2022-10-31T01:32:37;10.60;99.90
35962;DHT22;22044;48.298;10.008;2022-10-31T01:35:24;10.60;99.90
35962;DHT22;22044;48.298;10.008;2022-10-31T01:38:09;10.70;99.90
35962;DHT22;22044;48.298;10.008;2022-10-31T01:40:55;10.60;99.90
35962;DHT22;22044;48.298;10.008;2022-10-31T01:43:46;10.30;99.90
35962;DHT22;22044;48.298;10.008;2022-10-31T01:46:34;10.10;99.90
35962;DHT22;22044;48.298;10.008;2022-10-31T01:49:30;10.20;99.90
35962;DHT22;22044;48.298;10.008;2022-10-31T01:52:23;10.30;99.90
35962;DHT22;22044;48.298;10.008;2022-10-31T01:55:13;10.20;99.90
35962;DHT22;22044;48.298;10.008;2022-10-31T01:58:06;10.00;99.90
35962;DHT22;22044;48.298;10.008;2022-10-31T02:00:56;9.70;99.90
35962;DHT22;22044;48.298;10.008;2022-10-31T02:03:43;9.40;99.90
35962;DHT22;22044;48.298;10.008;2022-10-31T02:06:35;9.10;99.90
35962;DHT22;22044;48.298;10.008;2022-10-31T02:09:23;9.00;99.90
35962;DHT22;22044;48.298;10.008;2022-10-31T02:12:09;8.70;99.90
35962;DHT22;22044;48.298;10.008;2022-10-31T02:14:56;8.90;99.90
35962;DHT22;22044;48.298;10.008;2022-10-31T02:17:43;9.00;99.90
35962;DHT22;22044;48.298;10.008;2022-10-31T02:20:33;9.00;99.90
35962;DHT22;22044;48.298;10.008;2022-10-31T02:23:47;9.10;99.90
35962;DHT22;22044;48.298;10.008;2022-10-31T02:27:07;9.30;99.90
35962;DHT22;22044;48.298;10.008;2022-10-31T02:30:16;9.50;99.90
35962;DHT22;22044;48.298;10.008;2022-10-31T02:33:14;9.40;99.90
35962;DHT22;22044;48.298;10.008;2022-10-31T02:36:07;9.50;99.90
35962;DHT22;22044;48.298;10.008;2022-10-31T02:39:03;9.70;99.90
35962;DHT22;22044;48.298;10.008;2022-10-31T02:42:05;9.80;99.90
35962;DHT22;22044;48.298;10.008;2022-10-31T02:44:58;9.80;99.90
35962;DHT22;22044;48.298;10.008;2022-10-31T02:47:47;9.70;99.90
35962;DHT22;22044;48.298;10.008;2022-10-31T02:50:39;9.40;99.90
35962;DHT22;22044;48.298;10.008;2022-10-31T02:53:32;9.20;99.90
35962;DHT22;22044;48.298;10.008;2022-10-31T02:56:19;9.10;99.90
35962;DHT22;22044;48.298;10.008;2022-10-31T02:59:05;9.20;99.90
35962;DHT22;22044;48.298;10.008;2022-10-31T03:05:11;9.50;99.90
35962;DHT22;22044;48.298;10.008;2022-10-31T03:08:06;9.60;99.90
35962;DHT22;22044;48.298;10.008;2022-10-31T03:10:55;9.50;99.90
35962;DHT22;22044;48.298;10.008;2022-10-31T03:13:48;9.50;99.90
35962;DHT22;22044;48.298;10.008;2022-10-31T03:16:41;9.70;99.90
35962;DHT22;22044;48.298;10.008;2022-10-31T03:19:29;9.80;99.90
35962;DHT22;22044;48.298;10.008;2022-10-31T03:22:19;9.50;99.90
35962;DHT22;22044;48.298;10.008;2022-10-31T03:25:08;9.50;99.90
35962;DHT22;22044;48.298;10.008;2022-10-31T03:27:54;9.50;99.90
35962;DHT22;22044;48.298;10.008;2022-10-31T03:30:43;9.50;99.90
35962;DHT22;22044;48.298;10.008;2022-10-31T03:33:33;9.60;99.90
35962;DHT22;22044;48.298;10.008;2022-10-31T03:36:20;9.60;99.90
35962;DHT22;22044;48.298;10.008;2022-10-31T03:39:09;9.50;99.90
35962;DHT22;22044;48.298;10.008;2022-10-31T03:42:05;9.40;99.90
35962;DHT22;22044;48.298;10.008;2022-10-31T03:44:56;9.30;99.90
35962;DHT22;22044;48.298;10.008;2022-10-31T03:47:45;9.40;99.90
35962;DHT22;22044;48.298;10.008;2022-10-31T03:50:37;9.30;99.90
35962;DHT22;22044;48.298;10.008;2022-10-31T03:53:26;9.40;99.90
35962;DHT22;22044;48.298;10.008;2022-10-31T03:56:21;9.20;99.90
35962;DHT22;22044;48.298;10.008;2022-10-31T03:59:14;9.40;99.90
35962;DHT22;22044;48.298;10.008;2022-10-31T04:02:03;9.50;99.90
35962;DHT22;22044;48.298;10.008;2022-10-31T04:04:51;9.60;99.90
35962;DHT22;22044;48.298;10.008;2022-10-31T04:07:39;9.80;99.90
35962;DHT22;22044;48.298;10.008;2022-10-31T04:10:27;9.90;99.90
35962;DHT22;22044;48.298;10.008;2022-10-31T04:13:17;9.90;99.90
35962;DHT22;22044;48.298;10.008;2022-10-31T04:16:10;10.00;99.90
35962;DHT22;22044;48.298;10.008;2022-10-31T04:18:56;9.70;99.90
35962;DHT22;22044;48.298;10.008;2022-10-31T04:21:41;9.70;99.90
35962;DHT22;22044;48.298;10.008;2022-10-31T04:24:28;9.60;99.90
35962;DHT22;22044;48.298;10.008;2022-10-31T04:27:14;9.60;99.90
35962;DHT22;22044;48.298;10.008;2022-10-31T04:29:59;9.70;99.90
35962;DHT22;22044;48.298;10.008;2022-10-31T04:32:50;9.70;99.90
35962;DHT22;22044;48.298;10.008;2022-10-31T04:35:36;9.70;99.90
35962;DHT22;22044;48.298;10.008;2022-10-31T04:38:22;9.40;99.90
35962;DHT22;22044;48.298;10.008;2022-10-31T04:41:08;9.30;99.90
35962;DHT22;22044;48.298;10.008;2022-10-31T04:44:23;9.20;99.90
35962;DHT22;22044;48.298;10.008;2022-10-31T04:47:12;9.30;99.90
35962;DHT22;22044;48.298;10.008;2022-10-31T04:49:59;9.30;99.90
35962;DHT22;22044;48.298;10.008;2022-10-31T04:52:45;9.30;99.90
35962;DHT22;22044;48.298;10.008;2022-10-31T04:55:35;9.40;99.90
35962;DHT22;22044;48.298;10.008;2022-10-31T04:58:24;9.50;99.90
35962;DHT22;22044;48.298;10.008;2022-10-31T05:01:10;9.60;99.90
35962;DHT22;22044;48.298;10.008;2022-10-31T05:03:56;9.60;99.90
35962;DHT22;22044;48.298;10.008;2022-10-31T05:06:43;9.60;99.90
35962;DHT22;22044;48.298;10.008;2022-10-31T05:09:28;9.70;99.90
35962;DHT22;22044;48.298;10.008;2022-10-31T05:12:13;9.70;99.90
35962;DHT22;22044;48.298;10.008;2022-10-31T05:15:34;9.70;99.90
35962;DHT22;22044;48.298;10.008;2022-10-31T05:18:46;9.80;99.90
35962;DHT22;22044;48.298;10.008;2022-10-31T05:21:51;9.80;99.90
35962;DHT22;22044;48.298;10.008;2022-10-31T05:24:37;9.80;99.90
35962;DHT22;22044;48.298;10.008;2022-10-31T05:27:23;9.80;99.90
35962;DHT22;22044;48.298;10.008;2022-10-31T05:30:11;9.70;99.90
35962;DHT22;22044;48.298;10.008;2022-10-31T05:32:59;9.80;99.90
35962;DHT22;22044;48.298;10.008;2022-10-31T05:36:04;9.80;99.90
35962;DHT22;22044;48.298;10.008;2022-10-31T05:39:02;9.70;99.90
35962;DHT22;22044;48.298;10.008;2022-10-31T05:41:53;9.70;99.90
35962;DHT22;22044;48.298;10.008;2022-10-31T05:44:44;9.80;99.90
35962;DHT22;22044;48.298;10.008;2022-10-31T05:47:50;9.70;99.90
35962;DHT22;22044;48.298;10.008;2022-10-31T05:50:54;9.80;99.90
35962;DHT22;22044;48.298;10.008;2022-10-31T05:53:41;9.80;99.90
35962;DHT22;22044;48.298;10.008;2022-10-31T05:56:30;9.70;99.90
35962;DHT22;22044;48.298;10.008;2022-10-31T05:59:16;9.70;99.90
35962;DHT22;22044;48.298;10.008;2022-10-31T06:02:02;9.60;99.90
35962;DHT22;22044;48.298;10.008;2022-10-31T06:05:11;9.70;99.90
35962;DHT22;22044;48.298;10.008;2022-10-31T06:07:57;9.70;99.90
35962;DHT22;22044;48.298;10.008;2022-10-31T06:10:42;9.70;99.90
35962;DHT22;22044;48.298;10.008;2022-10-31T06:13:31;9.70;99.90
35962;DHT22;22044;48.298;10.008;2022-10-31T06:16:22;9.80;99.90
35962;DHT22;22044;48.298;10.008;2022-10-31T06:19:09;9.80;99.90
35962;DHT22;22044;48.298;10.008;2022-10-31T06:21:54;9.80;99.90
35962;DHT22;22044;48.298;10.008;2022-10-31T06:24:40;9.80;99.90
35962;DHT22;22044;48.298;10.008;2022-10-31T06:27:58;9.80;99.90
35962;DHT22;22044;48.298;10.008;2022-10-31T06:30:54;9.80;99.90
35962;DHT22;22044;48.298;10.008;2022-10-31T06:33:41;9.80;99.90
35962;DHT22;22044;48.298;10.008;2022-10-31T06:36:27;9.60;99.90
35962;DHT22;22044;48.298;10.008;2022-10-31T06:39:13;9.60;99.90
35962;DHT22;22044;48.298;10.008;2022-10-31T06:41:58;9.60;99.90
35962;DHT22;22044;48.298;10.008;2022-10-31T06:44:48;9.60;99.90
35962;DHT22;22044;48.298;10.008;2022-10-31T06:48:10;9.50;99.90
35962;DHT22;22044;48.298;10.008;2022-10-31T06:51:04;9.60;99.90
35962;DHT22;22044;48.298;10.008;2022-10-31T06:53:51;9.60;99.90
35962;DHT22;22044;48.298;10.008;2022-10-31T06:56:37;9.60;99.90
35962;DHT22;22044;48.298;10.008;2022-10-31T06:59:25;9.60;99.90
35962;DHT22;22044;48.298;10.008;2022-10-31T07:02:33;9.60;99.90
35962;DHT22;22044;48.298;10.008;2022-10-31T07:05:20;9.60;99.90
35962;DHT22;22044;48.298;10.008;2022-10-31T07:08:08;9.70;99.90
35962;DHT22;22044;48.298;10.008;2022-10-31T07:10:56;9.80;99.90
35962;DHT22;22044;48.298;10.008;2022-10-31T07:13:42;9.80;99.90
35962;DHT22;22044;48.298;10.008;2022-10-31T07:16:28;9.80;99.90
35962;DHT22;22044;48.298;10.008;2022-10-31T07:19:13;9.80;99.90
35962;DHT22;22044;48.298;10.008;2022-10-31T07:22:01;9.70;99.90
35962;DHT22;22044;48.298;10.008;2022-10-31T07:24:48;9.90;99.90
35962;DHT22;22044;48.298;10.008;2022-10-31T07:27:52;10.00;99.90
35962;DHT22;22044;48.298;10.008;2022-10-31T07:30:38;10.00;99.90
35962;DHT22;22044;48.298;10.008;2022-10-31T07:33:26;10.10;99.90
35962;DHT22;22044;48.298;10.008;2022-10-31T07:36:30;10.00;99.90
35962;DHT22;22044;48.298;10.008;2022-10-31T07:39:22;9.90;99.90
35962;DHT22;22044;48.298;10.008;2022-10-31T07:42:08;10.00;99.90
35962;DHT22;22044;48.298;10.008;2022-10-31T07:44:55;10.00;99.90
35962;DHT22;22044;48.298;10.008;2022-10-31T07:47:59;10.00;99.90
35962;DHT22;22044;48.298;10.008;2022-10-31T07:51:15;10.00;99.90
35962;DHT22;22044;48.298;10.008;2022-10-31T07:54:41;9.90;99.90
35962;DHT22;22044;48.298;10.008;2022-10-31T07:57:28;10.20;99.90
35962;DHT22;22044;48.298;10.008;2022-10-31T08:00:13;10.30;99.90
35962;DHT22;22044;48.298;10.008;2022-10-31T08:03:00;10.50;99.90
35962;DHT22;22044;48.298;10.008;2022-10-31T08:06:06;10.50;99.90
35962;DHT22;22044;48.298;10.008;2022-10-31T08:09:12;10.50;99.90
35962;DHT22;22044;48.298;10.008;2022-10-31T08:11:59;10.70;99.90
35962;DHT22;22044;48.298;10.008;2022-10-31T08:14:46;10.60;99.90
35962;DHT22;22044;48.298;10.008;2022-10-31T08:17:35;10.70;99.90
35962;DHT22;22044;48.298;10.008;2022-10-31T08:20:21;10.80;99.90
35962;DHT22;22044;48.298;10.008;2022-10-31T08:23:09;11.10;99.90
35962;DHT22;22044;48.298;10.008;2022-10-31T08:25:55;11.50;99.90
35962;DHT22;22044;48.298;10.008;2022-10-31T08:28:43;11.70;99.90
35962;DHT22;22044;48.298;10.008;2022-10-31T08:31:31;12.20;99.90
35962;DHT22;22044;48.298;10.008;2022-10-31T08:34:35;12.80;99.90
35962;DHT22;22044;48.298;10.008;2022-10-31T08:37:40;13.60;99.90
35962;DHT22;22044;48.298;10.008;2022-10-31T08:40:29;14.30;99.90
35962;DHT22;22044;48.298;10.008;2022-10-31T08:43:15;14.80;99.90
35962;DHT22;22044;48.298;10.008;2022-10-31T08:46:03;15.00;99.90
35962;DHT22;22044;48.298;10.008;2022-10-31T08:48:50;15.30;99.90
35962;DHT22;22044;48.298;10.008;2022-10-31T08:51:37;15.50;99.90
35962;DHT22;22044;48.298;10.008;2022-10-31T08:54:24;15.50;99.90
35962;DHT22;22044;48.298;10.008;2022-10-31T08:57:13;15.30;99.90
35962;DHT22;22044;48.298;10.008;2022-10-31T09:00:03;15.60;99.90
35962;DHT22;22044;48.298;10.008;2022-10-31T09:02:56;15.70;99.90
35962;DHT22;22044;48.298;10.008;2022-10-31T09:05:42;15.60;99.90
35962;DHT22;22044;48.298;10.008;2022-10-31T09:08:30;15.40;99.90
35962;DHT22;22044;48.298;10.008;2022-10-31T09:11:16;15.20;99.90
35962;DHT22;22044;48.298;10.008;2022-10-31T09:14:21;15.10;99.90
35962;DHT22;22044;48.298;10.008;2022-10-31T09:17:46;14.80;99.90
35962;DHT22;22044;48.298;10.008;2022-10-31T09:20:49;14.40;99.90
35962;DHT22;22044;48.298;10.008;2022-10-31T09:23:35;14.30;99.90
35962;DHT22;22044;48.298;10.008;2022-10-31T09:26:20;14.30;99.90
35962;DHT22;22044;48.298;10.008;2022-10-31T09:29:22;14.30;99.90
35962;DHT22;22044;48.298;10.008;2022-10-31T09:32:13;14.10;99.90
35962;DHT22;22044;48.298;10.008;2022-10-31T09:35:03;14.00;99.90
35962;DHT22;22044;48.298;10.008;2022-10-31T09:37:55;14.00;99.90
35962;DHT22;22044;48.298;10.008;2022-10-31T09:40:44;13.90;99.90
35962;DHT22;22044;48.298;10.008;2022-10-31T09:43:35;13.80;99.90
35962;DHT22;22044;48.298;10.008;2022-10-31T09:46:31;13.80;99.90
35962;DHT22;22044;48.298;10.008;2022-10-31T09:49:41;13.70;99.90
35962;DHT22;22044;48.298;10.008;2022-10-31T09:52:32;13.70;99.90
35962;DHT22;22044;48.298;10.008;2022-10-31T09:55:30;13.70;99.90
35962;DHT22;22044;48.298;10.008;2022-10-31T09:58:20;13.60;99.90
35962;DHT22;22044;48.298;10.008;2022-10-31T10:01:17;13.60;99.90
35962;DHT22;22044;48.298;10.008;2022-10-31T10:04:15;13.70;99.90
35962;DHT22;22044;48.298;10.008;2022-10-31T10:07:28;13.70;99.90
35962;DHT22;22044;48.298;10.008;2022-10-31T10:10:44;13.70;99.90
35962;DHT22;22044;48.298;10.008;2022-10-31T10:14:01;13.60;99.90
35962;DHT22;22044;48.298;10.008;2022-10-31T10:17:01;13.60;99.90
35962;DHT22;22044;48.298;10.008;2022-10-31T10:20:22;13.70;99.90
35962;DHT22;22044;48.298;10.008;2022-10-31T10:23:24;13.70;99.90
35962;DHT22;22044;48.298;10.008;2022-10-31T10:26:17;13.70;99.90
35962;DHT22;22044;48.298;10.008;2022-10-31T10:29:14;13.70;99.90
35962;DHT22;22044;48.298;10.008;2022-10-31T10:32:12;13.70;99.90
35962;DHT22;22044;48.298;10.008;2022-10-31T10:35:02;13.80;99.90
35962;DHT22;22044;48.298;10.008;2022-10-31T10:37:51;13.80;99.90
35962;DHT22;22044;48.298;10.008;2022-10-31T10:40:38;13.90;99.90
35962;DHT22;22044;48.298;10.008;2022-10-31T10:43:31;14.00;99.90
35962;DHT22;22044;48.298;10.008;2022-10-31T10:46:19;14.00;99.90
35962;DHT22;22044;48.298;10.008;2022-10-31T10:49:30;14.00;99.90
35962;DHT22;22044;48.298;10.008;2022-10-31T10:52:27;14.00;99.90
35962;DHT22;22044;48.298;10.008;2022-10-31T10:55:20;14.10;99.90
35962;DHT22;22044;48.298;10.008;2022-10-31T10:58:10;14.20;99.90
35962;DHT22;22044;48.298;10.008;2022-10-31T11:00:58;14.20;99.90
35962;DHT22;22044;48.298;10.008;2022-10-31T11:03:43;14.30;99.90
35962;DHT22;22044;48.298;10.008;2022-10-31T11:06:29;14.30;99.90
35962;DHT22;22044;48.298;10.008;2022-10-31T11:09:15;14.30;99.90
35962;DHT22;22044;48.298;10.008;2022-10-31T11:12:07;14.40;99.90
35962;DHT22;22044;48.298;10.008;2022-10-31T11:15:00;14.40;99.90
35962;DHT22;22044;48.298;10.008;2022-10-31T11:17:51;14.40;99.90
35962;DHT22;22044;48.298;10.008;2022-10-31T11:20:37;14.50;99.90
35962;DHT22;22044;48.298;10.008;2022-10-31T11:23:24;14.60;99.90
35962;DHT22;22044;48.298;10.008;2022-10-31T11:26:19;14.70;99.90
35962;DHT22;22044;48.298;10.008;2022-10-31T11:29:09;14.70;99.90
35962;DHT22;22044;48.298;10.008;2022-10-31T11:31:57;14.80;99.90
35962;DHT22;22044;48.298;10.008;2022-10-31T11:34:48;14.80;99.90
35962;DHT22;22044;48.298;10.008;2022-10-31T11:37:41;14.90;99.90
35962;DHT22;22044;48.298;10.008;2022-10-31T11:40:28;14.90;99.90
35962;DHT22;22044;48.298;10.008;2022-10-31T11:43:16;15.00;99.90
35962;DHT22;22044;48.298;10.008;2022-10-31T11:46:09;15.00;99.90
35962;DHT22;22044;48.298;10.008;2022-10-31T11:48:55;15.00;99.90
35962;DHT22;22044;48.298;10.008;2022-10-31T11:51:43;15.00;99.90
35962;DHT22;22044;48.298;10.008;2022-10-31T11:54:38;15.20;99.90
35962;DHT22;22044;48.298;10.008;2022-10-31T11:57:28;15.20;99.90
35962;DHT22;22044;48.298;10.008;2022-10-31T12:00:22;15.30;99.90
35962;DHT22;22044;48.298;10.008;2022-10-31T12:03:25;15.50;99.90
35962;DHT22;22044;48.298;10.008;2022-10-31T12:06:16;15.50;99.90
35962;DHT22;22044;48.298;10.008;2022-10-31T12:09:18;15.60;99.90
35962;DHT22;22044;48.298;10.008;2022-10-31T12:12:37;15.60;99.90
35962;DHT22;22044;48.298;10.008;2022-10-31T12:15:32;15.70;99.90
35962;DHT22;22044;48.298;10.008;2022-10-31T12:18:28;15.70;99.90
35962;DHT22;22044;48.298;10.008;2022-10-31T12:21:26;15.80;99.90
35962;DHT22;22044;48.298;10.008;2022-10-31T12:27:52;15.80;99.90
35962;DHT22;22044;48.298;10.008;2022-10-31T12:30:56;15.80;99.90
35962;DHT22;22044;48.298;10.008;2022-10-31T12:33:54;15.80;99.90
35962;DHT22;22044;48.298;10.008;2022-10-31T12:36:46;15.80;99.90
35962;DHT22;22044;48.298;10.008;2022-10-31T12:39:42;15.80;99.90
35962;DHT22;22044;48.298;10.008;2022-10-31T12:42:41;15.90;99.90
35962;DHT22;22044;48.298;10.008;2022-10-31T12:45:43;15.90;99.90
35962;DHT22;22044;48.298;10.008;2022-10-31T12:51:53;15.90;99.90
35962;DHT22;22044;48.298;10.008;2022-10-31T12:55:04;15.90;99.90
35962;DHT22;22044;48.298;10.008;2022-10-31T12:57:54;15.90;99.90
35962;DHT22;22044;48.298;10.008;2022-10-31T13:00:44;16.00;99.90
35962;DHT22;22044;48.298;10.008;2022-10-31T13:03:36;16.00;99.90
35962;DHT22;22044;48.298;10.008;2022-10-31T13:06:29;16.00;99.90
35962;DHT22;22044;48.298;10.008;2022-10-31T13:09:23;16.00;99.90
35962;DHT22;22044;48.298;10.008;2022-10-31T13:12:14;16.00;99.90
35962;DHT22;22044;48.298;10.008;2022-10-31T13:15:05;16.00;99.90
35962;DHT22;22044;48.298;10.008;2022-10-31T13:18:00;15.90;99.90
35962;DHT22;22044;48.298;10.008;2022-10-31T13:20:48;16.00;99.90
35962;DHT22;22044;48.298;10.008;2022-10-31T13:23:36;16.00;99.90
35962;DHT22;22044;48.298;10.008;2022-10-31T13:26:40;16.10;99.90
35962;DHT22;22044;48.298;10.008;2022-10-31T13:29:32;16.10;99.90
35962;DHT22;22044;48.298;10.008;2022-10-31T13:32:19;16.10;99.90
35962;DHT22;22044;48.298;10.008;2022-10-31T13:35:09;16.10;99.90
35962;DHT22;22044;48.298;10.008;2022-10-31T13:38:07;16.00;99.90
35962;DHT22;22044;48.298;10.008;2022-10-31T13:40:57;16.00;99.90
35962;DHT22;22044;48.298;10.008;2022-10-31T13:43:58;16.10;99.90
35962;DHT22;22044;48.298;10.008;2022-10-31T13:46:46;16.20;99.90
35962;DHT22;22044;48.298;10.008;2022-10-31T13:49:39;16.20;99.90
35962;DHT22;22044;48.298;10.008;2022-10-31T13:52:30;16.20;99.90
35962;DHT22;22044;48.298;10.008;2022-10-31T13:55:37;16.20;99.90
35962;DHT22;22044;48.298;10.008;2022-10-31T13:58:25;16.20;99.90
35962;DHT22;22044;48.298;10.008;2022-10-31T14:01:17;16.20;99.90
35962;DHT22;22044;48.298;10.008;2022-10-31T14:04:07;16.10;99.90
35962;DHT22;22044;48.298;10.008;2022-10-31T14:07:05;16.20;99.90
35962;DHT22;22044;48.298;10.008;2022-10-31T14:09:55;16.20;99.90
35962;DHT22;22044;48.298;10.008;2022-10-31T14:12:43;16.20;99.90
35962;DHT22;22044;48.298;10.008;2022-10-31T14:15:29;16.20;99.90
35962;DHT22;22044;48.298;10.008;2022-10-31T14:18:28;16.10;99.90
35962;DHT22;22044;48.298;10.008;2022-10-31T14:21:27;16.10;99.90
35962;DHT22;22044;48.298;10.008;2022-10-31T14:24:14;16.20;99.90
35962;DHT22;22044;48.298;10.008;2022-10-31T14:27:35;16.20;99.90
35962;DHT22;22044;48.298;10.008;2022-10-31T14:30:29;16.20;99.90
35962;DHT22;22044;48.298;10.008;2022-10-31T14:33:18;16.20;99.90
35962;DHT22;22044;48.298;10.008;2022-10-31T14:36:08;16.30;99.90
35962;DHT22;22044;48.298;10.008;2022-10-31T14:39:00;16.30;99.90
35962;DHT22;22044;48.298;10.008;2022-10-31T14:41:56;16.30;99.90
35962;DHT22;22044;48.298;10.008;2022-10-31T14:44:58;16.20;99.90
35962;DHT22;22044;48.298;10.008;2022-10-31T14:47:57;16.20;99.90
35962;DHT22;22044;48.298;10.008;2022-10-31T14:50:49;16.20;99.90
35962;DHT22;22044;48.298;10.008;2022-10-31T14:53:41;16.30;99.90
35962;DHT22;22044;48.298;10.008;2022-10-31T14:56:32;16.40;99.90
35962;DHT22;22044;48.298;10.008;2022-10-31T14:59:21;16.40;99.90
35962;DHT22;22044;48.298;10.008;2022-10-31T15:02:13;16.40;99.90
35962;DHT22;22044;48.298;10.008;2022-10-31T15:05:00;16.40;99.90
35962;DHT22;22044;48.298;10.008;2022-10-31T15:07:51;16.40;99.90
35962;DHT22;22044;48.298;10.008;2022-10-31T15:10:37;16.30;99.90
35962;DHT22;22044;48.298;10.008;2022-10-31T15:13:23;16.20;99.90
35962;DHT22;22044;48.298;10.008;2022-10-31T15:16:10;16.20;99.90
35962;DHT22;22044;48.298;10.008;2022-10-31T15:19:00;16.10;99.90
35962;DHT22;22044;48.298;10.008;2022-10-31T15:21:50;16.10;99.90
35962;DHT22;22044;48.298;10.008;2022-10-31T15:24:38;16.00;99.90
35962;DHT22;22044;48.298;10.008;2022-10-31T15:27:27;16.10;99.90
35962;DHT22;22044;48.298;10.008;2022-10-31T15:30:20;16.00;99.90
35962;DHT22;22044;48.298;10.008;2022-10-31T15:33:19;15.90;99.90
35962;DHT22;22044;48.298;10.008;2022-10-31T15:36:16;15.90;99.90
35962;DHT22;22044;48.298;10.008;2022-10-31T15:39:03;15.90;99.90
35962;DHT22;22044;48.298;10.008;2022-10-31T15:41:51;15.80;99.90
35962;DHT22;22044;48.298;10.008;2022-10-31T15:44:40;15.80;99.90
35962;DHT22;22044;48.298;10.008;2022-10-31T15:47:30;15.70;99.90
35962;DHT22;22044;48.298;10.008;2022-10-31T15:50:22;15.70;99.90
35962;DHT22;22044;48.298;10.008;2022-10-31T15:53:15;15.70;99.90
35962;DHT22;22044;48.298;10.008;2022-10-31T15:56:06;15.60;99.90
35962;DHT22;22044;48.298;10.008;2022-10-31T15:58:52;15.60;99.90
35962;DHT22;22044;48.298;10.008;2022-10-31T16:01:39;15.50;99.90
35962;DHT22;22044;48.298;10.008;2022-10-31T16:04:25;15.40;99.90
35962;DHT22;22044;48.298;10.008;2022-10-31T16:07:14;15.30;99.90
35962;DHT22;22044;48.298;10.008;2022-10-31T16:10:03;15.20;99.90
35962;DHT22;22044;48.298;10.008;2022-10-31T16:12:48;15.20;99.90
35962;DHT22;22044;48.298;10.008;2022-10-31T16:15:34;15.20;99.90
35962;DHT22;22044;48.298;10.008;2022-10-31T16:18:20;15.10;99.90
35962;DHT22;22044;48.298;10.008;2022-10-31T16:21:06;15.00;99.90
35962;DHT22;22044;48.298;10.008;2022-10-31T16:23:57;15.00;99.90
35962;DHT22;22044;48.298;10.008;2022-10-31T16:26:48;14.90;99.90
35962;DHT22;22044;48.298;10.008;2022-10-31T16:29:39;14.80;99.90
35962;DHT22;22044;48.298;10.008;2022-10-31T16:32:31;14.70;99.90
35962;DHT22;22044;48.298;10.008;2022-10-31T16:35:23;14.60;99.90
35962;DHT22;22044;48.298;10.008;2022-10-31T16:38:09;14.50;99.90
35962;DHT22;22044;48.298;10.008;2022-10-31T16:40:55;14.50;99.90
35962;DHT22;22044;48.298;10.008;2022-10-31T16:43:42;14.60;99.90
35962;DHT22;22044;48.298;10.008;2022-10-31T16:46:27;14.50;99.90
35962;DHT22;22044;48.298;10.008;2022-10-31T16:49:13;14.40;99.90
35962;DHT22;22044;48.298;10.008;2022-10-31T16:52:00;14.10;99.90
35962;DHT22;22044;48.298;10.008;2022-10-31T16:54:46;13.70;99.90
35962;DHT22;22044;48.298;10.008;2022-10-31T16:57:31;13.40;99.90
35962;DHT22;22044;48.298;10.008;2022-10-31T17:00:20;13.30;99.90
35962;DHT22;22044;48.298;10.008;2022-10-31T17:03:08;13.40;99.90
35962;DHT22;22044;48.298;10.008;2022-10-31T17:05:54;13.50;99.90
35962;DHT22;22044;48.298;10.008;2022-10-31T17:08:39;13.50;99.90
35962;DHT22;22044;48.298;10.008;2022-10-31T17:11:25;13.50;99.90
35962;DHT22;22044;48.298;10.008;2022-10-31T17:14:11;13.40;99.90
35962;DHT22;22044;48.298;10.008;2022-10-31T17:16:59;13.50;99.90
35962;DHT22;22044;48.298;10.008;2022-10-31T17:19:44;13.50;99.90
35962;DHT22;22044;48.298;10.008;2022-10-31T17:22:30;13.50;99.90
35962;DHT22;22044;48.298;10.008;2022-10-31T17:25:18;13.50;99.90
35962;DHT22;22044;48.298;10.008;2022-10-31T17:28:04;13.40;99.90
35962;DHT22;22044;48.298;10.008;2022-10-31T17:30:50;13.30;99.90
35962;DHT22;22044;48.298;10.008;2022-10-31T17:33:37;13.40;99.90
35962;DHT22;22044;48.298;10.008;2022-10-31T17:36:23;13.40;99.90
35962;DHT22;22044;48.298;10.008;2022-10-31T17:39:09;13.40;99.90
35962;DHT22;22044;48.298;10.008;2022-10-31T17:41:55;13.10;99.90
35962;DHT22;22044;48.298;10.008;2022-10-31T17:44:40;12.80;99.90
35962;DHT22;22044;48.298;10.008;2022-10-31T17:47:26;12.70;99.90
35962;DHT22;22044;48.298;10.008;2022-10-31T17:50:12;12.50;99.90
35962;DHT22;22044;48.298;10.008;2022-10-31T17:52:58;12.60;99.90
35962;DHT22;22044;48.298;10.008;2022-10-31T17:55:44;12.60;99.90
35962;DHT22;22044;48.298;10.008;2022-10-31T17:58:30;12.30;99.90
35962;DHT22;22044;48.298;10.008;2022-10-31T18:01:17;11.80;99.90